createdAt,value
2022-12-19T00:03:59.020Z,26.00
2022-12-19T00:14:15.920Z,25.80
2022-12-19T00:24:21.988Z,29.30
2022-12-19T00:34:27.817Z,29.20
2022-12-19T00:44:33.598Z,23.00
2022-12-19T00:54:39.250Z,29.50
2022-12-19T01:04:45.546Z,35.00
2022-12-19T01:14:52.938Z,28.80
2022-12-19T01:24:58.626Z,30.30
2022-12-19T01:35:04.645Z,32.60
2022-12-19T01:45:43.576Z,33.10
2022-12-19T01:55:54.278Z,29.90
2022-12-19T02:06:01.804Z,30.00
2022-12-19T02:16:20.165Z,27.80
2022-12-19T02:26:49.144Z,29.30
2022-12-19T02:36:58.162Z,25.70
2022-12-19T02:47:06.571Z,26.80
2022-12-19T02:57:20.952Z,32.60
2022-12-19T03:07:37.469Z,25.40
2022-12-19T03:17:43.427Z,27.60
2022-12-19T03:27:51.705Z,34.10
2022-12-19T03:38:02.924Z,27.90
2022-12-19T03:48:12.356Z,29.10
2022-12-19T03:58:25.370Z,27.80
2022-12-19T04:08:32.814Z,30.30
2022-12-19T04:18:42.590Z,28.70
2022-12-19T04:28:51.471Z,34.20
2022-12-19T04:38:57.371Z,30.70
2022-12-19T04:49:03.333Z,32.90
2022-12-19T04:59:09.050Z,35.00
2022-12-19T05:09:14.838Z,33.10
2022-12-19T05:19:20.425Z,38.50
2022-12-19T05:29:26.354Z,39.00
2022-12-19T05:39:32.301Z,37.50
2022-12-19T05:49:41.662Z,40.30
2022-12-19T05:59:47.423Z,37.10
2022-12-19T06:09:53.128Z,43.70
2022-12-19T06:19:58.833Z,46.70
2022-12-19T06:30:04.750Z,41.60
2022-12-19T06:40:33.945Z,42.70
2022-12-19T06:50:39.651Z,40.80
2022-12-19T07:00:45.258Z,39.70
2022-12-19T07:10:51.045Z,43.60
2022-12-19T07:20:57.709Z,40.00
2022-12-19T07:31:03.771Z,40.30
2022-12-19T07:41:09.624Z,45.00
2022-12-19T07:51:15.382Z,42.10
2022-12-19T08:01:21.504Z,34.60
2022-12-19T08:11:29.445Z,35.50
2022-12-19T08:21:35.267Z,32.10
2022-12-19T08:31:41.097Z,34.90
2022-12-19T08:41:46.796Z,38.10
2022-12-19T08:51:52.436Z,35.10
2022-12-19T09:01:58.401Z,34.40
2022-12-19T09:12:04.659Z,34.10
2022-12-19T09:22:10.316Z,34.70
2022-12-19T09:32:16.027Z,31.40
2022-12-19T09:42:41.233Z,35.40
2022-12-19T09:52:56.369Z,35.60
2022-12-19T10:03:06.557Z,33.40
2022-12-19T10:13:22.196Z,36.10
2022-12-19T10:23:50.557Z,40.90
2022-12-19T10:34:03.667Z,34.80
2022-12-19T10:44:11.204Z,32.70
2022-12-19T10:54:18.176Z,38.30
2022-12-19T11:04:34.432Z,34.90
2022-12-19T11:18:23.809Z,37.70
2022-12-19T11:29:38.526Z,34.90
2022-12-19T11:35:51.349Z,35.00
2022-12-19T11:46:05.781Z,29.00
2022-12-19T11:56:16.358Z,27.60
2022-12-19T12:06:31.140Z,29.10
2022-12-19T12:28:20.374Z,25.80
2022-12-19T12:31:42.781Z,28.40
2022-12-19T12:38:21.517Z,25.10
2022-12-19T12:48:37.704Z,21.10
2022-12-19T12:59:01.435Z,27.20
2022-12-19T13:09:25.673Z,27.60
2022-12-19T13:19:33.047Z,32.90
2022-12-19T13:29:54.418Z,34.40
2022-12-19T13:40:14.246Z,32.80
2022-12-19T13:50:30.953Z,35.60
2022-12-19T14:00:43.164Z,33.40
2022-12-19T14:11:33.616Z,32.80
2022-12-19T14:22:11.848Z,37.10
2022-12-19T14:31:58.393Z,37.90
2022-12-19T14:43:55.504Z,39.90
2022-12-19T14:54:26.804Z,38.30
2022-12-19T15:04:33.670Z,39.10
2022-12-19T15:14:50.792Z,40.40
2022-12-19T15:24:50.880Z,39.50
2022-12-19T15:34:56.606Z,36.90
2022-12-19T15:45:03.077Z,42.70
2022-12-19T15:55:13.549Z,40.60
2022-12-19T16:05:21.138Z,41.10
2022-12-19T16:15:30.053Z,41.30
2022-12-19T16:25:38.156Z,42.20
2022-12-19T16:46:16.488Z,45.70
2022-12-19T16:56:29.321Z,46.60
2022-12-19T17:06:35.072Z,44.30
2022-12-19T17:16:41.009Z,46.00
2022-12-19T17:26:47.540Z,45.80
2022-12-19T17:36:53.430Z,44.50
2022-12-19T17:46:59.658Z,53.20
2022-12-19T17:57:05.594Z,52.90
2022-12-19T18:07:16.471Z,48.20
2022-12-19T18:17:26.369Z,51.80
2022-12-19T18:27:32.325Z,48.40
2022-12-19T18:37:38.012Z,49.40
2022-12-19T18:57:54.509Z,51.50
2022-12-19T19:08:03.069Z,54.20
2022-12-19T19:18:10.289Z,55.80
2022-12-19T19:28:16.242Z,60.30
2022-12-19T19:48:27.024Z,52.60
2022-12-19T19:58:33.197Z,42.30
2022-12-19T20:08:40.696Z,35.40
2022-12-19T20:18:50.116Z,38.10
2022-12-19T20:28:56.855Z,33.10
2022-12-19T20:39:02.700Z,34.30
2022-12-19T20:49:08.472Z,29.00
2022-12-19T20:59:14.274Z,30.20
2022-12-19T21:09:20.115Z,30.20
2022-12-19T21:19:25.865Z,24.90
2022-12-19T21:29:31.586Z,25.00
2022-12-19T21:39:37.460Z,32.00
2022-12-19T21:49:43.556Z,29.20
2022-12-19T21:59:49.655Z,24.20
2022-12-19T22:09:55.510Z,23.40
2022-12-19T22:20:04.752Z,25.00
2022-12-19T22:30:15.820Z,25.80
2022-12-19T22:40:21.571Z,24.10
2022-12-19T22:50:27.298Z,23.00
2022-12-19T23:00:33.741Z,25.80
2022-12-19T23:10:40.163Z,21.10
2022-12-19T23:20:46.329Z,23.90
2022-12-19T23:30:52.176Z,17.50
2022-12-19T23:41:03.008Z,22.90
2022-12-19T23:51:11.501Z,21.70
